Latest Weather Observations for Edinburgh

IDS60801

Issued at 2:31 pm CST Monday 23 September 2019 (issued every 10 minutes, with the page automatically refreshed every 10 minutes)

About weather observations | Map of weather stations | Latest weather observations for SA | Other Formats
Station Details ID: 023083 Name: EDINBURGH RAAF Lat: -34.71 Lon: 138.62 Height: 16.54 m
Data from the previous 72 hours. | See also: Recent months at Edinburgh
Date/Time
CST
Temp
°C
App
Temp
°C
Dew
Point
°C
Rel
Hum
%
Delta-T
°C
Wind Press
QNH
hPa
Press
MSL
hPa
Rain since
9am
mm
Dir  Spd
km/h
Gust
km/h
Spd
kts
Gust
kts
23/02:00pm 15.4 10.4 4.5 48 5.1 WSW 20 32 11 17 1030.0 1030.0 0.0
23/01:30pm 15.9 11.0 5.2 49 5.0 SW 20 30 11 16 1030.1 1030.1 0.0
23/01:00pm 15.5 10.7 5.4 51 4.8 SW 20 28 11 15 1030.2 1030.2 0.0
23/12:30pm 14.7 9.7 3.8 48 4.9 SW 19 26 10 14 1030.5 1030.5 0.0
23/12:00pm 13.7 7.7 5.1 56 4.0 W 26 33 14 18 1030.7 1030.7 0.0
23/11:30am 13.8 9.1 5.9 59 3.7 WSW 20 30 11 16 1030.7 1030.7 0.0
23/11:00am 13.7 9.9 7.7 67 3.0 W 17 20 9 11 1030.9 1030.9 0.0
23/10:30am 13.2 8.7 6.1 62 3.3 WSW 19 24 10 13 1030.8 1030.8 0.0
23/10:00am 13.5 9.7 5.7 59 3.7 WSW 15 22 8 12 1030.9 1030.9 0.0
23/09:30am 13.6 9.6 6.5 62 3.4 WSW 17 28 9 15 1030.7 1030.7 0.0
23/09:00am 13.3 9.4 7.3 67 2.9 WSW 17 22 9 12 1030.7 1030.7 0.8
23/08:30am 11.0 9.4 8.1 82 1.4 NW 6 15 3 8 1030.6 1030.6 0.8
23/08:00am 9.8 7.5 7.6 86 1.1 NNE 9 11 5 6 1030.3 1030.3 0.8
23/07:30am 8.3 5.8 6.6 89 0.8 ENE 9 11 5 6 1030.1 1030.1 0.8
23/07:00am 7.8 4.4 6.1 89 0.8 NE 13 15 7 8 1030.0 1030.0 0.8
23/06:30am 8.2 5.6 6.3 88 0.9 NE 9 17 5 9 1029.6 1029.6 0.8
23/06:00am 9.4 6.0 5.9 79 1.6 SW 13 15 7 8 1029.1 1029.1 0.8
23/05:30am 9.8 6.4 6.0 77 1.7 SW 13 17 7 9 1028.8 1028.8 0.8
23/05:00am 10.3 6.5 5.9 74 2.0 SW 15 20 8 11 1028.4 1028.4 0.8
23/04:30am 9.0 5.6 5.7 80 1.5 SW 13 15 7 8 1028.1 1028.1 0.8
23/04:00am 10.1 6.4 6.4 78 1.7 WSW 15 19 8 10 1027.8 1027.8 0.8
23/03:30am 10.3 5.7 6.6 78 1.7 W 20 28 11 15 1027.6 1027.6 0.8
23/03:00am 10.5 5.9 5.5 71 2.3 SW 19 26 10 14 1027.3 1027.3 0.8
23/02:30am 9.6 7.1 6.5 81 1.4 SW 9 13 5 7 1027.4 1027.4 0.8
23/02:00am 9.9 7.0 6.4 79 1.6 WSW 11 13 6 7 1027.3 1027.3 0.8
23/01:30am 10.1 6.6 7.2 82 1.4 WSW 15 19 8 10 1027.1 1027.1 0.8
23/01:00am 9.6 6.1 7.2 85 1.1 WSW 15 17 8 9 1027.0 1027.0 0.8
23/12:30am 9.7 5.8 7.0 83 1.3 WSW 17 22 9 12 1027.0 1027.0 0.8
23/12:00am 9.9 6.0 7.0 82 1.4 WSW 17 20 9 11 1027.1 1027.1 0.8
 
Date/Time
CST
Temp
°C
App
Temp
°C
Dew
Point
°C
Rel
Hum
%
Delta-T
°C
Wind Press
QNH
hPa
Press
MSL
hPa
Rain since
9am
mm
Dir  Spd
km/h
Gust
km/h
Spd
kts
Gust
kts
22/11:30pm 10.2 6.0 7.3 82 1.4 WSW 19 24 10 13 1027.0 1027.0 0.8
22/11:00pm 10.8 6.5 7.9 82 1.4 WSW 20 28 11 15 1026.9 1026.9 0.8
22/10:30pm 10.6 6.3 7.7 82 1.4 WSW 20 26 11 14 1026.9 1026.9 0.8
22/10:00pm 10.8 6.6 8.2 84 1.3 WSW 20 26 11 14 1026.7 1026.7 0.8
22/09:30pm 10.7 5.6 7.6 81 1.5 W 24 32 13 17 1026.4 1026.4 0.8
22/09:00pm 10.2 6.0 8.1 87 1.0 W 20 26 11 14 1026.4 1026.4 0.6
22/08:30pm 9.6 2.9 7.4 86 1.0 WSW 32 44 17 24 1026.2 1026.2 0.6
22/08:19pm 9.9 5.9 8.3 90 0.8 NW 19 52 10 28 1026.0 1026.0 0.4
22/08:00pm 9.4 6.4 7.8 90 0.8 N 13 17 7 9 1025.8 1025.8 0.2
22/07:30pm 9.1 6.3 6.9 86 1.0 NNW 11 15 6 8 1025.7 1025.7 0.2
22/07:00pm 10.0 6.6 7.6 85 1.1 WNW 15 19 8 10 1025.3 1025.3 0.2
22/06:30pm 10.9 6.7 8.3 84 1.3 WNW 20 30 11 16 1025.1 1025.1 0.2
22/06:00pm 12.8 6.4 7.0 68 2.8 WNW 30 39 16 21 1024.6 1024.6 0.0
22/05:30pm 13.2 7.7 6.1 62 3.4 WNW 24 33 13 18 1024.3 1024.3 0.0
22/05:00pm 13.4 6.2 6.0 61 3.5 W 33 41 18 22 1024.2 1024.2 0.0
22/04:30pm 14.9 8.4 6.7 58 4.0 WNW 30 41 16 22 1024.1 1024.1 0.0
22/04:00pm 14.3 7.3 6.2 58 3.9 WNW 32 41 17 22 1024.1 1024.1 0.0
22/03:30pm 14.7 7.4 4.4 50 4.7 WNW 32 44 17 24 1023.8 1023.8 0.0
22/03:00pm 14.3 6.9 4.0 50 4.7 WNW 32 39 17 21 1023.8 1023.8 0.0
22/02:30pm 14.9 7.4 3.7 47 5.1 WNW 32 43 17 23 1024.1 1024.1 0.0
22/02:00pm 15.4 8.5 4.8 49 5.0 WNW 30 41 16 22 1024.5 1024.5 0.0
22/01:30pm 15.5 8.3 4.8 49 5.0 WNW 32 37 17 20 1024.4 1024.4 0.0
22/01:00pm 15.3 8.6 5.8 53 4.6 WNW 30 39 16 21 1024.8 1024.8 0.0
22/12:30pm 15.2 8.3 4.6 49 4.9 WNW 30 39 16 21 1025.0 1025.0 0.0
22/12:00pm 14.9 7.7 4.9 51 4.7 WNW 32 43 17 23 1025.1 1025.1 0.0
22/11:30am 14.4 8.2 6.3 58 3.9 WNW 28 39 15 21 1025.3 1025.3 0.0
22/11:00am 14.0 7.9 6.4 60 3.7 WNW 28 37 15 20 1025.5 1025.5 0.0
22/10:30am 13.4 7.5 5.8 60 3.6 WNW 26 35 14 19 1025.6 1025.6 0.0
22/10:00am 13.1 7.9 7.3 68 2.8 WNW 24 32 13 17 1025.7 1025.7 0.0
22/09:30am 12.1 8.5 8.2 77 1.9 NW 17 26 9 14 1025.7 1025.7 0.0
22/09:00am 11.9 8.4 8.6 80 1.6 NNW 17 22 9 12 1025.7 1025.7 1.0
22/08:30am 10.8 8.1 8.9 88 0.9 N 13 19 7 10 1025.6 1025.6 1.0
22/08:00am 7.9 4.6 6.4 90 0.7 N 13 17 7 9 1025.6 1025.6 1.0
22/07:30am 7.2 3.8 5.8 91 0.6 N 13 20 7 11 1025.4 1025.4 0.8
22/07:00am 7.0 3.5 5.6 91 0.6 NE 13 17 7 9 1025.1 1025.1 0.8
22/06:30am 6.4 3.2 4.9 90 0.6 NNE 11 13 6 7 1024.8 1024.8 0.8
22/06:00am 7.0 4.3 5.6 91 0.6 N 9 17 5 9 1024.5 1024.5 0.8
22/05:30am 6.9 4.2 5.5 91 0.6 NNE 9 13 5 7 1024.0 1024.0 0.8
22/05:10am 6.6 3.8 5.1 90 0.7 NNE 9 13 5 7 1023.8 1023.8 0.8
22/05:00am 6.7 3.1 5.2 90 0.7 N 13 17 7 9 1023.8 1023.8 0.6
22/04:57am 6.8 3.6 5.3 90 0.7 N 11 17 6 9 1023.8 1023.8 0.6
22/04:30am 6.6 3.7 4.8 88 0.8 N 9 15 5 8 1023.5 1023.5 0.2
22/04:00am 6.7 3.1 5.0 89 0.7 NE 13 15 7 8 1023.2 1023.2 0.0
22/03:30am 6.3 3.8 4.6 89 0.7 NNE 7 11 4 6 1023.1 1023.1 0.0
22/03:00am 6.2 2.5 4.4 88 0.8 NE 13 15 7 8 1023.2 1023.2 0.0
22/02:30am 6.1 2.8 4.3 88 0.8 NE 11 15 6 8 1023.3 1023.3 0.0
22/02:00am 5.9 2.5 4.1 88 0.8 NE 11 15 6 8 1023.4 1023.4 0.0
22/01:30am 5.9 2.5 3.9 87 0.8 NE 11 15 6 8 1023.6 1023.6 0.0
22/01:00am 5.8 2.4 3.8 87 0.8 NE 11 13 6 7 1023.6 1023.6 0.0
22/12:30am 6.0 2.9 3.7 85 1.0 NE 9 11 5 6 1023.7 1023.7 0.0
22/12:00am 7.7 4.3 3.9 77 1.6 W 11 11 6 6 1023.6 1023.6 0.0
 
Date/Time
CST
Temp
°C
App
Temp
°C
Dew
Point
°C
Rel
Hum
%
Delta-T
°C
Wind Press
QNH
hPa
Press
MSL
hPa
Rain since
9am
mm
Dir  Spd
km/h
Gust
km/h
Spd
kts
Gust
kts
21/11:30pm 7.8 4.0 3.7 75 1.7 W 13 15 7 8 1023.6 1023.6 0.0
21/11:00pm 8.3 4.5 3.8 73 1.9 WSW 13 17 7 9 1023.6 1023.6 0.0
21/10:30pm 8.9 4.3 3.9 71 2.2 WSW 17 20 9 11 1023.4 1023.4 0.0
21/10:00pm 9.2 4.7 4.2 71 2.2 WSW 17 20 9 11 1023.4 1023.4 0.0
21/09:30pm 9.6 5.0 3.8 67 2.5 W 17 24 9 13 1023.4 1023.4 0.0
21/09:00pm 10.1 5.2 4.0 66 2.7 W 19 22 10 12 1023.2 1023.2 0.0
21/08:30pm 10.5 5.6 4.2 65 2.8 W 19 26 10 14 1023.1 1023.1 0.0
21/08:00pm 10.3 5.4 4.0 65 2.8 W 19 26 10 14 1022.9 1022.9 0.0
21/07:30pm 10.6 5.4 3.4 61 3.1 W 20 30 11 16 1022.7 1022.7 0.0
21/07:00pm 11.6 7.1 6.3 70 2.5 SW 19 24 10 13 1022.2 1022.2 0.0
21/06:30pm 11.6 7.9 6.1 69 2.6 WSW 15 19 8 10 1021.8 1021.8 0.0
21/06:00pm 12.2 8.4 5.6 64 3.1 WSW 15 20 8 11 1021.5 1021.5 0.0
21/05:30pm 12.3 8.2 6.1 66 2.9 WSW 17 20 9 11 1021.2 1021.2 0.0
21/05:00pm 12.9 7.7 5.6 61 3.4 SW 22 32 12 17 1020.9 1020.9 0.0
21/04:30pm 12.6 7.3 4.8 59 3.6 SW 22 32 12 17 1020.5 1020.5 0.0
21/04:00pm 14.0 9.4 6.6 61 3.6 WSW 20 32 11 17 1020.2 1020.2 0.0
21/03:30pm 14.2 9.4 5.8 57 4.0 SSW 20 28 11 15 1019.9 1019.9 0.0
21/03:00pm 14.8 9.1 4.8 51 4.7 WSW 24 30 13 16 1019.7 1019.7 0.0
21/02:30pm 14.4 8.4 5.5 55 4.2 SW 26 39 14 21 1019.4 1019.4 0.0
21/02:00pm 14.3 7.3 4.3 51 4.6 WSW 30 37 16 20 1019.3 1019.3 0.0
21/01:30pm 15.1 8.0 3.3 45 5.3 SW 30 39 16 21 1019.2 1019.2 0.0
21/01:00pm 14.8 7.8 5.9 55 4.3 SW 32 41 17 22 1019.0 1019.0 0.0
21/12:30pm 14.3 8.1 6.2 58 3.9 WSW 28 37 15 20 1018.9 1018.9 0.0
21/12:00pm 15.0 8.7 7.5 61 3.7 WSW 30 41 16 22 1018.8 1018.8 0.0
21/11:30am 14.3 7.1 7.6 64 3.3 SW 35 46 19 25 1018.3 1018.3 0.0
21/11:00am 12.3 5.2 8.0 75 2.1 SW 35 44 19 24 1017.9 1017.9 0.0
21/10:30am 13.6 6.3 7.4 66 3.0 SW 35 44 19 24 1017.4 1017.4 0.0
21/10:00am 12.3 5.4 7.4 72 2.4 SW 33 43 18 23 1017.4 1017.4 0.0
21/09:42am 11.4 4.0 8.3 81 1.5 SW 37 56 20 30 1017.5 1017.5 0.0
21/09:30am 12.6 5.6 8.3 75 2.1 SW 35 44 19 24 1017.1 1017.1 0.0
21/09:00am 11.4 4.9 8.1 80 1.6 SW 32 43 17 23 1016.7 1016.7 14.6
21/08:30am 12.3 6.0 7.4 72 2.4 WSW 30 37 16 20 1016.3 1016.3 14.6
21/08:00am 11.3 5.3 7.2 76 2.0 W 28 37 15 20 1015.8 1015.8 14.6
21/07:30am 11.4 6.7 7.9 79 1.7 W 22 28 12 15 1015.3 1015.3 14.6
21/07:00am 10.7 5.5 7.4 80 1.6 W 24 28 13 15 1015.0 1015.0 14.6
21/06:30am 10.1 6.2 7.0 81 1.5 W 17 20 9 11 1014.6 1014.6 14.6
21/06:00am 10.4 6.0 7.3 81 1.5 W 20 26 11 14 1014.2 1014.2 14.6
21/05:30am 10.2 5.8 7.4 83 1.3 W 20 28 11 15 1013.8 1013.8 14.6
21/05:00am 9.1 5.6 7.2 88 0.9 NW 15 19 8 10 1013.4 1013.4 14.6
21/04:30am 8.8 5.2 6.6 86 1.0 NW 15 17 8 9 1013.0 1013.0 14.6
21/04:00am 9.4 6.2 6.7 83 1.3 WNW 13 17 7 9 1013.0 1013.0 14.6
21/03:30am 9.6 7.3 7.5 87 1.0 WNW 9 11 5 6 1013.0 1013.0 14.6
21/03:00am 10.1 7.1 7.9 86 1.1 WNW 13 19 7 10 1012.7 1012.7 14.6
21/02:30am 10.2 8.1 8.3 88 0.9 WNW 9 13 5 7 1012.8 1012.8 14.6
21/02:00am 10.3 8.2 8.1 86 1.1 WNW 9 15 5 8 1013.0 1013.0 14.6
21/01:30am 10.3 7.8 8.1 86 1.1 WSW 11 17 6 9 1013.0 1013.0 14.6
21/01:00am 10.3 7.8 8.2 87 1.0 SW 11 15 6 8 1013.9 1013.9 14.6
21/12:30am 10.3 7.5 8.4 88 0.9 SSW 13 15 7 8 1013.7 1013.7 14.6
21/12:00am 10.0 6.7 7.9 87 1.0 SW 15 19 8 10 1013.7 1013.7 14.6
 
Date/Time
CST
Temp
°C
App
Temp
°C
Dew
Point
°C
Rel
Hum
%
Delta-T
°C
Wind Press
QNH
hPa
Press
MSL
hPa
Rain since
9am
mm
Dir  Spd
km/h
Gust
km/h
Spd
kts
Gust
kts
20/11:30pm 10.2 7.0 8.5 89 0.8 WSW 15 19 8 10 1013.7 1013.7 14.4
20/11:19pm 10.3 5.8 8.7 90 0.8 WSW 22 28 12 15 1014.1 1014.1 14.4
20/11:16pm 10.2 5.3 8.6 90 0.8 WSW 24 30 13 16 1013.9 1013.9 14.4
20/11:00pm 10.0 3.9 8.4 90 0.8 WSW 30 39 16 21 1013.8 1013.8 14.4
20/10:30pm 10.7 6.5 9.6 93 0.6 W 22 28 12 15 1013.8 1013.8 13.2
20/10:17pm 11.0 7.8 9.9 93 0.6 NW 17 22 9 12 1013.9 1013.9 12.4
20/10:00pm 11.0 8.6 9.9 93 0.6 NW 13 19 7 10 1014.1 1014.1 12.2
20/09:34pm 11.0 9.3 9.9 93 0.6 NW 9 13 5 7 1014.0 1014.0 12.0
20/09:30pm 11.0 8.9 9.9 93 0.6 NW 11 15 6 8 1013.9 1013.9 12.0
20/09:00pm 11.0 9.9 9.8 92 0.6 NNW 6 9 3 5 1014.1 1014.1 11.6
20/08:30pm 11.1 10.0 9.9 92 0.6 NW 6 7 3 4 1014.4 1014.4 10.8
20/08:00pm 11.3 8.9 10.0 92 0.7 W 13 19 7 10 1014.8 1014.8 9.8
20/07:58pm 11.3 8.9 10.0 92 0.7 W 13 19 7 10 1014.8 1014.8 9.8
20/07:43pm 11.3 8.5 10.0 92 0.7 W 15 17 8 9 1014.8 1014.8 9.2
20/07:36pm 11.3 8.1 10.0 92 0.7 W 17 20 9 11 1014.7 1014.7 9.0
20/07:30pm 11.4 8.6 10.1 92 0.7 W 15 20 8 11 1014.9 1014.9 8.8
20/07:15pm 11.4 9.0 10.1 92 0.7 W 13 15 7 8 1015.0 1015.0 7.2
20/07:00pm 11.3 8.1 9.9 91 0.7 WNW 17 24 9 13 1015.0 1015.0 6.0
20/06:42pm 11.7 9.7 10.3 91 0.7 W 11 15 6 8 1014.5 1014.5 4.4
20/06:30pm 11.4 9.4 10.0 91 0.7 WSW 11 15 6 8 1014.2 1014.2 3.2
20/06:00pm 11.7 9.0 10.3 91 0.7 WSW 15 20 8 11 1013.9 1013.9 1.8
20/05:30pm 11.9 8.7 10.0 88 1.0 W 17 20 9 11 1014.4 1014.4 0.0
20/05:14pm 12.4 8.9 10.3 87 1.1 WSW 19 24 10 13 1013.8 1013.8 0.0
20/05:04pm 12.7 8.6 10.2 85 1.3 WSW 22 30 12 16 1014.0 1014.0 0.0
20/05:00pm 12.8 8.7 10.2 84 1.3 WSW 22 30 12 16 1014.1 1014.1 0.0
20/04:30pm 13.9 9.5 8.9 72 2.5 W 22 30 12 16 1013.8 1013.8 0.0
20/04:00pm 14.5 10.3 9.9 74 2.4 WSW 22 30 12 16 1013.1 1013.1 0.0
20/03:30pm 14.7 8.7 10.9 78 2.0 WSW 33 43 18 23 1013.0 1013.0 0.0
20/03:11pm 16.1 11.8 10.8 71 2.8 WSW 24 50 13 27 1012.1 1012.1 0.0
20/03:00pm 17.9 14.0 8.7 55 4.8 WSW 19 22 10 12 1012.3 1012.3 0.0

Other formats

Comma delimited format used in spreadsheet applications
http://www.bom.gov.au/fwo/IDS60801/IDS60801.95676.axf

JavaScript Object Notation format (JSON) in row-major order
http://www.bom.gov.au/fwo/IDS60801/IDS60801.95676.json

Data quality

Most of these data are generated automatically and are frequently updated. Quality checks on data are not normally performed. It is possible for incorrect values to appear. Refer to information at About Latest Weather Observations and please check the disclaimer before using these data.